createdAt,value
2018-03-17T00:01:51.620Z,54.40
2018-03-17T00:04:19.179Z,54.40
2018-03-17T00:06:46.733Z,54.40
2018-03-17T00:09:14.260Z,54.20
2018-03-17T00:11:41.858Z,54.30
2018-03-17T00:14:09.382Z,54.20
2018-03-17T00:16:37.052Z,54.30
2018-03-17T00:19:04.663Z,54.30
2018-03-17T00:21:32.290Z,54.60
2018-03-17T00:23:59.831Z,54.70
2018-03-17T00:26:27.366Z,55.00
2018-03-17T00:28:55.046Z,55.20
2018-03-17T00:31:22.707Z,55.30
2018-03-17T00:33:50.250Z,55.70
2018-03-17T00:36:18.546Z,55.90
2018-03-17T00:38:46.075Z,55.90
2018-03-17T00:41:14.376Z,56.40
2018-03-17T00:43:41.908Z,56.40
2018-03-17T00:46:11.253Z,56.50
2018-03-17T00:48:38.827Z,56.70
2018-03-17T00:51:06.452Z,56.30
2018-03-17T00:53:33.972Z,53.80
2018-03-17T00:56:01.487Z,53.30
2018-03-17T00:58:29.131Z,53.50
2018-03-17T01:00:56.651Z,53.00
2018-03-17T01:03:24.243Z,51.10
2018-03-17T01:05:51.768Z,50.30
2018-03-17T01:08:19.358Z,50.20
2018-03-17T01:10:46.928Z,50.10
2018-03-17T01:13:14.463Z,49.90
2018-03-17T01:15:42.758Z,49.80
2018-03-17T01:18:11.143Z,50.50
2018-03-17T01:20:38.670Z,50.50
2018-03-17T01:23:06.182Z,50.60
2018-03-17T01:25:34.007Z,50.80
2018-03-17T01:28:02.292Z,51.00
2018-03-17T01:30:29.828Z,51.00
2018-03-17T01:32:57.348Z,50.80
2018-03-17T01:35:24.889Z,50.80
2018-03-17T01:37:52.490Z,50.20
2018-03-17T01:40:20.787Z,50.10
2018-03-17T01:42:49.109Z,50.20
2018-03-17T01:45:16.680Z,50.10
2018-03-17T01:47:44.203Z,49.40
2018-03-17T01:50:11.715Z,50.40
2018-03-17T01:52:39.237Z,50.40
2018-03-17T01:55:06.758Z,51.00
2018-03-17T01:57:35.155Z,50.30
2018-03-17T02:00:02.926Z,50.30
2018-03-17T02:02:30.495Z,50.60
2018-03-17T02:04:58.044Z,50.60
2018-03-17T02:07:25.703Z,50.90
2018-03-17T02:09:53.264Z,50.80
2018-03-17T02:12:20.795Z,50.00
2018-03-17T02:14:49.100Z,48.80
2018-03-17T02:17:16.707Z,48.80
2018-03-17T02:19:44.229Z,49.40
2018-03-17T02:22:12.576Z,49.60
2018-03-17T02:24:40.160Z,49.10
2018-03-17T02:27:07.691Z,49.80
2018-03-17T02:29:35.208Z,49.50
2018-03-17T02:32:02.744Z,49.50
2018-03-17T02:34:30.336Z,49.30
2018-03-17T02:36:57.861Z,49.30
2018-03-17T02:39:25.399Z,49.80
2018-03-17T02:41:53.130Z,49.30
2018-03-17T02:44:20.924Z,49.00
2018-03-17T02:46:48.447Z,49.40
2018-03-17T02:49:16.742Z,49.80
2018-03-17T02:51:45.041Z,49.90
2018-03-17T02:54:12.579Z,49.90
2018-03-17T02:56:40.114Z,49.60
2018-03-17T02:59:07.760Z,49.60
2018-03-17T03:01:35.314Z,50.00
2018-03-17T03:04:02.835Z,50.10
2018-03-17T03:06:30.364Z,49.90
2018-03-17T03:08:57.897Z,50.30
2018-03-17T03:11:25.846Z,50.40
2018-03-17T03:13:53.379Z,50.00
2018-03-17T03:16:20.895Z,50.50
2018-03-17T03:18:49.936Z,50.50
2018-03-17T03:21:17.462Z,50.50
2018-03-17T03:23:45.107Z,50.40
2018-03-17T03:26:12.639Z,50.80
2018-03-17T03:28:40.171Z,50.90
2018-03-17T03:31:07.704Z,50.90
2018-03-17T03:33:35.243Z,50.90
2018-03-17T03:36:02.861Z,50.50
2018-03-17T03:38:30.683Z,51.10
2018-03-17T03:40:58.228Z,50.80
2018-03-17T03:43:25.839Z,51.60
2018-03-17T03:45:53.445Z,51.50
2018-03-17T03:48:21.073Z,51.30
2018-03-17T03:50:48.628Z,51.30
2018-03-17T03:53:16.180Z,51.50
2018-03-17T03:55:43.939Z,51.80
2018-03-17T03:58:11.676Z,51.80
2018-03-17T04:00:39.992Z,52.00
2018-03-17T04:03:07.559Z,51.90
2018-03-17T04:05:35.091Z,51.90
2018-03-17T04:08:02.622Z,51.80
2018-03-17T04:10:30.175Z,52.00
2018-03-17T04:12:58.479Z,52.00
2018-03-17T04:15:26.139Z,52.00
2018-03-17T04:17:53.801Z,52.30
2018-03-17T04:20:21.332Z,52.40
2018-03-17T04:22:48.944Z,51.90
2018-03-17T04:25:16.521Z,52.20
2018-03-17T04:27:44.240Z,51.70
2018-03-17T04:30:11.814Z,52.00
2018-03-17T04:32:39.364Z,51.40
2018-03-17T04:35:07.118Z,52.20
2018-03-17T04:37:34.795Z,51.40
2018-03-17T04:40:02.359Z,51.60
2018-03-17T04:42:29.978Z,51.60
2018-03-17T04:44:57.512Z,51.50
2018-03-17T04:47:25.129Z,51.60
2018-03-17T04:49:52.719Z,51.80
2018-03-17T04:52:20.285Z,52.00
2018-03-17T04:54:48.027Z,51.70
2018-03-17T04:57:15.572Z,51.50
2018-03-17T04:59:43.139Z,51.10
2018-03-17T05:02:10.669Z,50.50
2018-03-17T05:04:38.969Z,50.00
2018-03-17T05:07:06.496Z,50.10
2018-03-17T05:09:34.016Z,50.10
2018-03-17T05:12:01.539Z,50.80
2018-03-17T05:14:29.062Z,51.10
2018-03-17T05:16:57.393Z,50.00
2018-03-17T05:19:24.945Z,50.00
2018-03-17T05:21:52.686Z,49.80
2018-03-17T05:24:20.217Z,50.40
2018-03-17T05:26:47.739Z,49.80
2018-03-17T05:29:15.264Z,49.50
2018-03-17T05:31:42.924Z,50.10
2018-03-17T05:34:10.439Z,49.80
2018-03-17T05:36:38.048Z,49.90
2018-03-17T05:39:05.611Z,50.00
2018-03-17T05:41:33.271Z,49.60
2018-03-17T05:44:00.788Z,49.70
2018-03-17T05:46:28.313Z,49.50
2018-03-17T05:48:55.843Z,49.60
2018-03-17T05:51:23.455Z,49.40
2018-03-17T05:53:50.998Z,49.20
2018-03-17T05:56:18.599Z,49.20
2018-03-17T05:58:47.009Z,49.50
2018-03-17T06:01:14.535Z,49.50
2018-03-17T06:03:42.846Z,50.30
2018-03-17T06:06:10.393Z,50.30
2018-03-17T06:08:37.982Z,50.00
2018-03-17T06:11:05.516Z,49.70
2018-03-17T06:13:33.050Z,49.70
2018-03-17T06:16:01.353Z,49.20
2018-03-17T06:18:28.876Z,49.20
2018-03-17T06:20:56.420Z,49.70
2018-03-17T06:23:23.947Z,49.50
2018-03-17T06:25:51.625Z,49.30
2018-03-17T06:28:19.134Z,49.10
2018-03-17T06:30:47.439Z,48.00
2018-03-17T06:33:14.955Z,48.00
2018-03-17T06:35:43.323Z,47.60
2018-03-17T06:38:11.653Z,48.00
2018-03-17T06:40:39.175Z,47.40
2018-03-17T06:43:06.724Z,47.50
2018-03-17T06:45:35.016Z,48.00
2018-03-17T06:48:02.574Z,48.10
2018-03-17T06:50:30.246Z,47.80
2018-03-17T06:52:58.137Z,47.90
2018-03-17T06:55:25.872Z,47.90
2018-03-17T06:57:53.401Z,47.20
2018-03-17T07:00:20.987Z,47.00
2018-03-17T07:02:49.272Z,46.10
2018-03-17T07:05:16.801Z,46.00
2018-03-17T07:07:44.343Z,45.50
2018-03-17T07:10:12.635Z,45.10
2018-03-17T07:12:40.171Z,45.10
2018-03-17T07:15:07.782Z,45.10
2018-03-17T07:17:35.335Z,45.80
2018-03-17T07:20:03.030Z,45.60
2018-03-17T07:22:30.564Z,46.10
2018-03-17T07:24:58.111Z,45.30
2018-03-17T07:27:25.672Z,45.30
2018-03-17T07:29:53.232Z,45.00
2018-03-17T07:32:20.796Z,45.50
2018-03-17T07:34:48.478Z,44.90
2018-03-17T07:37:16.043Z,45.40
2018-03-17T07:39:43.676Z,44.50
2018-03-17T07:42:11.207Z,44.00
2018-03-17T07:44:38.819Z,44.50
2018-03-17T07:47:06.555Z,43.30
2018-03-17T07:49:34.250Z,43.80
2018-03-17T07:52:02.005Z,43.50
2018-03-17T07:54:29.528Z,44.00
2018-03-17T07:56:57.835Z,41.60
2018-03-17T07:59:25.592Z,41.60
2018-03-17T08:01:53.137Z,41.80
2018-03-17T08:04:21.548Z,40.30
2018-03-17T08:06:49.069Z,40.30
2018-03-17T08:09:16.620Z,40.40
2018-03-17T08:11:44.169Z,41.80
2018-03-17T08:14:12.492Z,41.40
2018-03-17T08:16:40.056Z,41.40
2018-03-17T08:19:07.576Z,40.80
2018-03-17T08:21:35.866Z,41.40
2018-03-17T08:24:04.163Z,39.50
2018-03-17T08:26:31.713Z,40.00
2018-03-17T08:28:59.247Z,39.60
2018-03-17T08:31:27.602Z,39.20
2018-03-17T08:33:55.123Z,39.20
2018-03-17T08:36:22.689Z,39.50
2018-03-17T08:38:50.219Z,38.70
2018-03-17T08:41:17.765Z,38.70
2018-03-17T08:43:46.078Z,38.30
2018-03-17T08:46:13.638Z,38.30
2018-03-17T08:48:41.901Z,38.70
2018-03-17T08:51:09.549Z,38.00
2018-03-17T08:53:37.078Z,37.70
2018-03-17T08:56:05.417Z,37.90
2018-03-17T08:58:32.937Z,37.90
2018-03-17T09:01:00.615Z,37.50
2018-03-17T09:03:28.206Z,36.90
2018-03-17T09:05:55.771Z,37.10
2018-03-17T09:08:24.076Z,37.80
2018-03-17T09:10:52.370Z,38.20
2018-03-17T09:13:19.919Z,38.20
2018-03-17T09:15:47.469Z,37.80
2018-03-17T09:18:15.792Z,38.20
2018-03-17T09:20:43.333Z,38.70
2018-03-17T09:23:10.993Z,38.00
2018-03-17T09:25:38.677Z,38.40
2018-03-17T09:28:06.210Z,38.30
2018-03-17T09:30:33.832Z,38.40
2018-03-17T09:33:01.579Z,37.60
2018-03-17T09:35:29.299Z,37.60
2018-03-17T09:37:56.831Z,37.50
2018-03-17T09:40:25.119Z,37.10
2018-03-17T09:42:52.723Z,37.10
2018-03-17T09:45:20.260Z,36.70
2018-03-17T09:47:47.787Z,36.50
2018-03-17T09:50:15.319Z,36.60
2018-03-17T09:52:42.866Z,36.40
2018-03-17T09:55:10.411Z,36.00
2018-03-17T09:57:37.955Z,35.60
2018-03-17T10:00:05.570Z,35.60
2018-03-17T10:02:33.177Z,35.30
2018-03-17T10:05:00.781Z,35.60
2018-03-17T10:07:28.333Z,35.80
2018-03-17T10:09:56.683Z,34.70
2018-03-17T10:12:24.231Z,34.70
2018-03-17T10:14:51.792Z,35.00
2018-03-17T10:17:19.421Z,34.90
2018-03-17T10:19:47.704Z,34.30
2018-03-17T10:22:15.493Z,34.20
2018-03-17T10:24:43.028Z,34.70
2018-03-17T10:27:10.589Z,35.10
2018-03-17T10:29:38.112Z,34.00
2018-03-17T10:32:05.638Z,35.20
2018-03-17T10:34:33.185Z,35.20
2018-03-17T10:37:00.827Z,35.40
2018-03-17T10:39:28.476Z,35.00
2018-03-17T10:41:55.999Z,34.60
2018-03-17T10:44:23.529Z,33.20
2018-03-17T10:46:51.090Z,34.30
2018-03-17T10:49:18.653Z,34.80
2018-03-17T10:51:46.170Z,34.30
2018-03-17T10:54:13.949Z,33.70
2018-03-17T10:56:42.228Z,34.40
2018-03-17T10:59:09.768Z,34.40
2018-03-17T11:01:42.249Z,34.50
2018-03-17T11:04:09.815Z,33.40
2018-03-17T11:06:37.344Z,33.40
2018-03-17T11:09:05.779Z,33.00
2018-03-17T11:11:33.308Z,32.30
2018-03-17T11:14:00.889Z,31.50
2018-03-17T11:16:28.547Z,31.90
2018-03-17T11:18:56.157Z,32.20
2018-03-17T11:21:23.867Z,32.00
2018-03-17T11:23:51.409Z,31.50
2018-03-17T11:26:18.989Z,31.70
2018-03-17T11:28:46.751Z,31.30
2018-03-17T11:31:14.310Z,31.70
2018-03-17T11:33:41.968Z,30.90
2018-03-17T11:36:09.573Z,30.60
2018-03-17T11:38:37.098Z,30.60
2018-03-17T11:41:04.730Z,30.80
2018-03-17T11:43:32.346Z,31.50
2018-03-17T11:45:59.952Z,31.40
2018-03-17T11:48:27.504Z,29.90
2018-03-17T11:50:55.063Z,29.30
2018-03-17T11:53:22.592Z,29.20
2018-03-17T11:55:50.188Z,29.70
2018-03-17T11:58:17.768Z,29.80
2018-03-17T12:00:45.325Z,29.10
2018-03-17T12:03:12.987Z,28.80
2018-03-17T12:05:40.512Z,28.90
2018-03-17T12:08:08.887Z,29.60
2018-03-17T12:10:36.409Z,29.60
2018-03-17T12:13:04.252Z,28.10
2018-03-17T12:15:31.793Z,28.10
2018-03-17T12:17:59.870Z,28.00
2018-03-17T12:20:27.465Z,27.80
2018-03-17T12:22:54.986Z,28.00
2018-03-17T12:25:22.739Z,28.50
2018-03-17T12:27:50.399Z,27.70
2018-03-17T12:30:18.086Z,28.20
2018-03-17T12:32:45.632Z,27.80
2018-03-17T12:35:13.168Z,28.30
2018-03-17T12:37:40.712Z,27.80
2018-03-17T12:40:08.272Z,28.40
2018-03-17T12:42:35.831Z,28.20
2018-03-17T12:45:03.453Z,28.50
2018-03-17T12:47:31.077Z,28.10
2018-03-17T12:49:58.649Z,27.30
2018-03-17T12:52:26.240Z,29.00
2018-03-17T12:54:53.916Z,28.50
2018-03-17T12:57:21.441Z,28.90
2018-03-17T12:59:49.059Z,27.30
2018-03-17T13:02:17.384Z,26.50
2018-03-17T13:04:44.910Z,26.50
2018-03-17T13:07:12.456Z,26.50
2018-03-17T13:09:40.773Z,25.80
2018-03-17T13:12:08.300Z,25.70
2018-03-17T13:14:35.818Z,25.80
2018-03-17T13:17:03.645Z,25.90
2018-03-17T13:19:31.167Z,25.30
2018-03-17T13:21:59.501Z,26.00
2018-03-17T13:24:27.048Z,25.90
2018-03-17T13:27:06.635Z,26.10
2018-03-17T13:29:34.254Z,26.30
2018-03-17T13:32:01.788Z,26.10
2018-03-17T13:34:29.437Z,25.70
2018-03-17T13:37:20.144Z,24.30
2018-03-17T13:39:47.666Z,24.30
2018-03-17T13:42:15.204Z,25.00
2018-03-17T13:44:44.196Z,24.40
2018-03-17T13:47:12.022Z,24.30
2018-03-17T13:49:39.544Z,24.20
2018-03-17T13:52:07.070Z,23.80
2018-03-17T13:54:34.587Z,23.90
2018-03-17T13:57:02.103Z,24.20
2018-03-17T13:59:29.636Z,24.00
2018-03-17T14:01:57.367Z,24.20
2018-03-17T14:04:25.037Z,23.70
2018-03-17T14:06:52.919Z,23.50
2018-03-17T14:09:20.517Z,24.30
2018-03-17T14:11:48.087Z,23.80
2018-03-17T14:14:16.418Z,23.80
2018-03-17T14:16:43.943Z,23.80
2018-03-17T14:19:11.540Z,24.20
2018-03-17T14:21:39.061Z,24.50
2018-03-17T14:24:06.596Z,24.00
2018-03-17T14:26:34.156Z,23.10
2018-03-17T14:29:01.685Z,23.30
2018-03-17T14:31:29.212Z,23.40
2018-03-17T14:33:56.730Z,23.10
2018-03-17T14:36:24.499Z,23.30
2018-03-17T14:38:52.037Z,23.30
2018-03-17T14:41:19.805Z,23.50
2018-03-17T14:43:47.342Z,23.70
2018-03-17T14:46:15.001Z,24.00
2018-03-17T14:48:42.546Z,24.00
2018-03-17T14:51:10.087Z,23.50
2018-03-17T14:53:37.618Z,23.70
2018-03-17T14:56:06.163Z,23.80
2018-03-17T14:58:33.860Z,23.80
2018-03-17T15:01:01.421Z,23.60
2018-03-17T15:03:29.720Z,23.50
2018-03-17T15:05:57.268Z,23.50
2018-03-17T15:08:25.665Z,24.20
2018-03-17T15:10:53.193Z,24.20
2018-03-17T15:13:20.718Z,24.30
2018-03-17T15:15:48.338Z,24.40
2018-03-17T15:18:15.909Z,24.40
2018-03-17T15:20:43.444Z,24.90
2018-03-17T15:23:11.751Z,25.80
2018-03-17T15:25:39.326Z,25.80
2018-03-17T15:28:06.847Z,25.40
2018-03-17T15:30:35.136Z,25.40
2018-03-17T15:33:02.697Z,25.30
2018-03-17T15:35:30.224Z,24.70
2018-03-17T15:37:58.553Z,26.10
2018-03-17T15:40:26.103Z,26.00
2018-03-17T15:42:53.656Z,25.90
2018-03-17T15:45:21.191Z,26.40
2018-03-17T15:47:48.789Z,26.90
2018-03-17T15:50:16.321Z,27.10
2018-03-17T15:52:43.865Z,27.30
2018-03-17T15:55:12.429Z,27.50
2018-03-17T15:57:39.945Z,27.40
2018-03-17T16:00:07.538Z,27.80
2018-03-17T16:02:35.139Z,28.00
2018-03-17T16:05:02.705Z,28.70
2018-03-17T16:07:30.281Z,29.10
2018-03-17T16:09:57.789Z,28.80
2018-03-17T16:12:25.484Z,28.90
2018-03-17T16:14:53.247Z,29.40
2018-03-17T16:17:20.780Z,29.40
2018-03-17T16:19:48.433Z,29.50
2018-03-17T16:22:16.092Z,29.70
2018-03-17T16:24:45.115Z,29.80
2018-03-17T16:27:12.932Z,29.70
2018-03-17T16:29:40.470Z,29.80
2018-03-17T16:32:08.029Z,30.60
2018-03-17T16:34:35.581Z,31.00
2018-03-17T16:37:03.225Z,31.80
2018-03-17T16:39:30.758Z,33.00
2018-03-17T16:41:58.300Z,32.70
2018-03-17T16:44:25.836Z,32.90
2018-03-17T16:46:53.368Z,33.40
2018-03-17T16:49:21.027Z,32.60
2018-03-17T16:51:48.658Z,32.50
2018-03-17T16:54:16.964Z,32.70
2018-03-17T16:56:44.487Z,32.70
2018-03-17T16:59:12.826Z,34.30
2018-03-17T17:01:40.406Z,34.20
2018-03-17T17:04:08.230Z,35.60
2018-03-17T17:06:35.892Z,35.40
2018-03-17T17:09:03.453Z,36.40
2018-03-17T17:11:30.992Z,36.60
2018-03-17T17:13:58.545Z,36.40
2018-03-17T17:16:26.107Z,37.00
2018-03-17T17:18:53.843Z,37.10
2018-03-17T17:21:22.153Z,37.30
2018-03-17T17:23:49.712Z,37.30
2018-03-17T17:26:17.235Z,37.50
2018-03-17T17:28:44.748Z,38.10
2018-03-17T17:31:12.322Z,38.30
2018-03-17T17:33:39.849Z,39.20
2018-03-17T17:36:07.488Z,39.20
2018-03-17T17:38:35.880Z,39.20
2018-03-17T17:41:03.609Z,39.20
2018-03-17T17:43:31.137Z,39.80
2018-03-17T17:45:58.941Z,39.60
2018-03-17T17:48:26.412Z,39.80
2018-03-17T17:50:54.708Z,40.50
2018-03-17T17:53:22.282Z,40.30
2018-03-17T17:55:49.927Z,40.30
2018-03-17T17:58:17.457Z,40.80
2018-03-17T18:00:45.781Z,41.50
2018-03-17T18:03:13.328Z,41.50
2018-03-17T18:05:40.987Z,41.20
2018-03-17T18:08:08.533Z,41.00
2018-03-17T18:10:36.130Z,41.50
2018-03-17T18:13:03.673Z,41.50
2018-03-17T18:15:31.474Z,41.90
2018-03-17T18:17:59.003Z,42.40
2018-03-17T18:20:26.552Z,41.80
2018-03-17T18:22:54.091Z,41.90
2018-03-17T18:25:21.637Z,42.20
2018-03-17T18:27:49.169Z,42.20
2018-03-17T18:30:16.785Z,42.00
2018-03-17T18:32:44.301Z,41.90
2018-03-17T18:35:12.649Z,42.10
2018-03-17T18:37:40.191Z,42.00
2018-03-17T18:40:07.822Z,42.00
2018-03-17T18:42:35.388Z,42.10
2018-03-17T18:45:02.980Z,42.20
2018-03-17T18:47:30.578Z,42.10
2018-03-17T18:49:58.163Z,42.30
2018-03-17T18:52:25.798Z,42.70
2018-03-17T18:54:54.120Z,42.60
2018-03-17T18:57:21.665Z,42.60
2018-03-17T18:59:49.233Z,42.20
2018-03-17T19:02:16.784Z,42.50
2018-03-17T19:04:44.318Z,42.30
2018-03-17T19:07:12.644Z,42.50
2018-03-17T19:09:40.165Z,42.40
2018-03-17T19:12:07.703Z,42.30
2018-03-17T19:14:36.018Z,43.00
2018-03-17T19:17:03.565Z,42.90
2018-03-17T19:19:31.104Z,43.10
2018-03-17T19:21:59.413Z,43.30
2018-03-17T19:24:27.037Z,43.30
2018-03-17T19:26:55.367Z,43.50
2018-03-17T19:29:23.116Z,43.50
2018-03-17T19:31:50.666Z,43.60
2018-03-17T19:34:18.207Z,44.00
2018-03-17T19:36:45.769Z,44.00
2018-03-17T19:39:13.602Z,44.10
2018-03-17T19:41:42.058Z,44.10
2018-03-17T19:44:09.616Z,44.00
2018-03-17T19:46:37.196Z,44.00
2018-03-17T19:49:04.801Z,44.40
2018-03-17T19:51:32.364Z,44.20
2018-03-17T19:54:00.084Z,44.70
2018-03-17T19:56:29.238Z,44.70
2018-03-17T19:58:56.845Z,45.20
2018-03-17T20:01:25.234Z,45.50
2018-03-17T20:03:53.020Z,45.50
2018-03-17T20:06:20.588Z,45.40
2018-03-17T20:08:48.200Z,46.10
2018-03-17T20:11:15.784Z,45.90
2018-03-17T20:13:43.353Z,45.80
2018-03-17T20:16:10.954Z,45.80
2018-03-17T20:18:38.549Z,46.30
2018-03-17T20:21:06.127Z,46.40
2018-03-17T20:23:34.489Z,47.10
2018-03-17T20:26:02.394Z,47.10
2018-03-17T20:28:29.950Z,47.30
2018-03-17T20:30:58.698Z,47.20
2018-03-17T20:33:26.429Z,47.10
2018-03-17T20:35:53.994Z,47.20
2018-03-17T20:38:21.665Z,47.30
2018-03-17T20:40:49.235Z,47.30
2018-03-17T20:43:17.676Z,47.60
2018-03-17T20:45:45.237Z,47.40
2018-03-17T20:48:12.804Z,47.50
2018-03-17T20:50:40.374Z,47.50
2018-03-17T20:53:08.693Z,47.40
2018-03-17T20:55:36.269Z,47.40
2018-03-17T20:58:03.935Z,47.10
2018-03-17T21:00:33.032Z,47.70
2018-03-17T21:03:00.671Z,47.70
2018-03-17T21:05:28.245Z,47.40
2018-03-17T21:07:55.814Z,47.10
2018-03-17T21:10:23.461Z,47.40
2018-03-17T21:12:51.022Z,47.30
2018-03-17T21:15:18.573Z,47.50
2018-03-17T21:17:46.172Z,47.40
2018-03-17T21:20:13.866Z,47.40
2018-03-17T21:22:41.502Z,47.30
2018-03-17T21:25:09.073Z,47.60
2018-03-17T21:27:36.638Z,47.50
2018-03-17T21:30:04.254Z,47.80
2018-03-17T21:32:31.815Z,47.50
2018-03-17T21:34:59.407Z,47.40
2018-03-17T21:37:26.970Z,47.50
2018-03-17T21:39:54.534Z,47.60
2018-03-17T21:42:22.119Z,47.70
2018-03-17T21:44:49.684Z,47.70
2018-03-17T21:47:17.238Z,47.80
2018-03-17T21:49:44.787Z,48.00
2018-03-17T21:52:13.191Z,47.60
2018-03-17T21:54:41.381Z,47.60
2018-03-17T21:57:08.979Z,47.60
2018-03-17T21:59:37.432Z,48.50
2018-03-17T22:02:04.984Z,47.80
2018-03-17T22:04:32.546Z,48.10
2018-03-17T22:07:00.116Z,48.20
2018-03-17T22:09:27.703Z,48.50
2018-03-17T22:11:55.251Z,48.30
2018-03-17T22:14:22.796Z,48.50
2018-03-17T22:16:50.444Z,48.40
2018-03-17T22:19:18.092Z,48.50
2018-03-17T22:21:45.846Z,48.20
2018-03-17T22:24:13.399Z,48.40
2018-03-17T22:26:41.040Z,48.50
2018-03-17T22:29:08.609Z,48.60
2018-03-17T22:31:37.004Z,48.10
2018-03-17T22:34:04.679Z,48.10
2018-03-17T22:36:32.234Z,48.30
2018-03-17T22:38:59.796Z,48.30
2018-03-17T22:41:27.336Z,48.60
2018-03-17T22:43:54.932Z,48.30
2018-03-17T22:46:22.557Z,48.30
2018-03-17T22:48:50.079Z,48.40
2018-03-17T22:51:17.794Z,48.30
2018-03-17T22:53:45.337Z,48.20
2018-03-17T22:56:13.056Z,48.40
2018-03-17T22:58:40.583Z,48.70
2018-03-17T23:01:08.167Z,48.30
2018-03-17T23:03:35.832Z,47.80
2018-03-17T23:06:03.384Z,48.00
2018-03-17T23:08:30.961Z,48.00
2018-03-17T23:10:58.500Z,47.70
2018-03-17T23:13:26.215Z,47.80
2018-03-17T23:15:53.750Z,48.20
2018-03-17T23:18:21.266Z,47.80
2018-03-17T23:20:48.808Z,48.00
2018-03-17T23:23:16.331Z,47.80
2018-03-17T23:25:44.651Z,47.60
2018-03-17T23:28:12.305Z,47.60
2018-03-17T23:30:39.948Z,47.90
2018-03-17T23:33:07.506Z,47.90
2018-03-17T23:35:35.091Z,47.50
2018-03-17T23:38:02.634Z,47.70
2018-03-17T23:40:30.313Z,47.50
2018-03-17T23:42:57.848Z,47.90
2018-03-17T23:45:25.451Z,47.50
2018-03-17T23:47:52.985Z,47.40
2018-03-17T23:50:20.593Z,47.50
2018-03-17T23:52:48.257Z,47.40
2018-03-17T23:55:15.778Z,47.80
2018-03-17T23:57:43.411Z,47.70
